Time,TemperatureF,DewpointF,PressureIn,WindDirection,WindDirectionDegrees,WindSpeedMPH,WindSpeedGustMPH,Humidity,HourlyPrecipIn,Conditions,Clouds,dailyrainin,SoftwareType,DateUTC
2013-02-04 06:34:00,2.8,-2.6,29.35,ENE,67,0.0,0.0,78,0.00,,,0.00,WUHU21623XXSP,2013-02-04 12:34:00,
2013-02-04 06:39:00,2.3,-3.4,29.36,ENE,67,0.0,0.0,77,0.00,,,0.00,WUHU21623XXSP,2013-02-04 12:39:00,
2013-02-04 06:44:00,1.9,-3.6,29.36,ENE,67,0.0,0.0,77,0.00,,,0.00,WUHU21623XXSP,2013-02-04 12:44:00,
2013-02-04 06:49:00,1.9,-3.5,29.36,ENE,67,0.0,0.0,78,0.00,,,0.00,WUHU21623XXSP,2013-02-04 12:49:00,
2013-02-04 06:54:00,1.8,-3.6,29.36,ENE,67,0.0,0.0,78,0.00,,,0.00,WUHU21623XXSP,2013-02-04 12:54:00,
2013-02-04 06:59:00,1.6,-3.8,29.36,ENE,67,0.0,0.0,78,0.00,,,0.00,WUHU21623XXSP,2013-02-04 12:59:00,
2013-02-04 07:04:00,1.6,-3.8,29.36,ENE,67,0.0,0.0,78,0.00,,,0.00,WUHU21623XXSP,2013-02-04 13:04:00,
2013-02-04 07:09:00,1.8,-3.6,29.36,ENE,67,0.0,0.0,78,0.00,,,0.00,WUHU21623XXSP,2013-02-04 13:09:00,
2013-02-04 07:14:00,2.3,-3.1,29.36,ENE,67,0.0,0.0,78,0.00,,,0.00,WUHU21623XXSP,2013-02-04 13:14:00,
2013-02-04 07:19:00,2.8,-2.6,29.36,ENE,67,0.0,0.0,78,0.00,,,0.00,WUHU21623XXSP,2013-02-04 13:19:00,
2013-02-04 07:24:00,3.0,-2.4,29.36,ENE,67,0.0,0.0,78,0.00,,,0.00,WUHU21623XXSP,2013-02-04 13:24:00,
2013-02-04 07:29:00,3.0,-2.4,29.36,ENE,67,0.0,0.0,78,0.00,,,0.00,WUHU21623XXSP,2013-02-04 13:29:00,
2013-02-04 07:34:00,3.0,-2.4,29.36,ENE,67,0.0,0.0,78,0.00,,,0.00,WUHU21623XXSP,2013-02-04 13:34:00,
2013-02-04 07:39:00,3.4,-2.0,29.37,ENE,67,0.0,0.0,78,0.00,,,0.00,WUHU21623XXSP,2013-02-04 13:39:00,
2013-02-04 07:45:00,3.4,-2.0,29.36,ENE,67,0.0,0.0,78,0.00,,,0.00,WUHU21623XXSP,2013-02-04 13:45:00,
2013-02-04 07:50:00,3.4,-2.0,29.36,ENE,67,0.0,0.0,78,0.00,,,0.00,WUHU21623XXSP,2013-02-04 13:50:00,
2013-02-04 07:55:00,3.6,-1.9,29.36,ENE,67,0.0,0.0,78,0.00,,,0.00,WUHU21623XXSP,2013-02-04 13:55:00,
2013-02-04 08:00:00,3.4,-2.0,29.36,ENE,67,0.0,0.0,78,0.00,,,0.00,WUHU21623XXSP,2013-02-04 14:00:00,
2013-02-04 08:05:00,3.0,-2.4,29.36,ENE,67,0.0,0.0,78,0.00,,,0.00,WUHU21623XXSP,2013-02-04 14:05:00,
2013-02-04 08:10:00,3.0,-2.4,29.35,ENE,67,0.0,0.0,78,0.00,,,0.00,WUHU21623XXSP,2013-02-04 14:10:00,
2013-02-04 08:15:00,2.8,-2.6,29.36,ENE,67,0.0,0.0,78,0.00,,,0.00,WUHU21623XXSP,2013-02-04 14:15:00,
2013-02-04 08:20:00,2.8,-2.6,29.36,ENE,67,0.0,0.0,78,0.00,,,0.00,WUHU21623XXSP,2013-02-04 14:20:00,
2013-02-04 08:25:00,2.8,-2.6,29.36,ENE,67,0.0,0.0,78,0.00,,,0.00,WUHU21623XXSP,2013-02-04 14:25:00,
2013-02-04 08:30:00,3.0,-2.4,29.36,ENE,67,0.0,0.0,78,0.00,,,0.00,WUHU21623XXSP,2013-02-04 14:30:00,
2013-02-04 08:35:00,3.4,-2.0,29.37,ENE,67,0.0,0.0,78,0.00,,,0.00,WUHU21623XXSP,2013-02-04 14:35:00,
2013-02-04 08:40:00,4.1,-1.0,29.37,ENE,67,0.0,0.0,79,0.00,,,0.00,WUHU21623XXSP,2013-02-04 14:40:00,
2013-02-04 08:45:00,4.8,-0.7,29.37,ENE,67,0.0,0.0,79,0.00,,,0.00,WUHU21623XXSP,2013-02-04 14:45:00,
2013-02-04 08:50:00,5.2,0.0,29.37,ENE,67,0.0,0.0,79,0.00,,,0.00,WUHU21623XXSP,2013-02-04 14:50:00,
2013-02-04 08:55:00,6.6,1.8,29.37,ENE,67,0.0,0.0,80,0.00,,,0.00,WUHU21623XXSP,2013-02-04 14:55:00,
2013-02-04 09:00:00,8.2,3.9,29.37,ENE,67,0.0,0.0,82,0.00,,,0.00,WUHU21623XXSP,2013-02-04 15:00:00,
2013-02-04 09:05:00,10.0,5.8,29.37,ENE,67,0.0,0.0,83,0.00,,,0.00,WUHU21623XXSP,2013-02-04 15:05:00,
2013-02-04 09:10:00,12.7,7.3,29.37,ENE,67,0.0,0.0,81,0.00,,,0.00,WUHU21623XXSP,2013-02-04 15:10:00,
2013-02-04 09:15:00,14.4,9.0,29.37,ENE,67,0.0,0.0,79,0.00,,,0.00,WUHU21623XXSP,2013-02-04 15:15:00,
2013-02-04 09:20:00,16.0,9.1,29.37,ENE,67,0.0,0.0,74,0.00,,,0.00,WUHU21623XXSP,2013-02-04 15:20:00,
2013-02-04 09:25:00,17.6,9.2,29.37,ENE,67,0.0,0.0,69,0.00,,,0.00,WUHU21623XXSP,2013-02-04 15:25:00,
2013-02-04 09:30:00,18.7,9.4,29.37,ENE,67,0.0,0.0,67,0.00,,,0.00,WUHU21623XXSP,2013-02-04 15:30:00,
2013-02-04 09:35:00,19.4,9.4,29.38,ENE,67,0.0,0.0,65,0.00,,,0.00,WUHU21623XXSP,2013-02-04 15:35:00,
2013-02-04 09:40:00,20.1,9.1,29.38,ENE,67,0.0,0.0,62,0.00,,,0.00,WUHU21623XXSP,2013-02-04 15:40:00,
2013-02-04 09:45:00,21.0,9.3,29.38,ENE,67,0.0,0.0,60,0.00,,,0.00,WUHU21623XXSP,2013-02-04 15:45:00,
2013-02-04 09:50:00,21.7,9.6,29.38,ENE,67,0.0,0.0,59,0.00,,,0.00,WUHU21623XXSP,2013-02-04 15:50:00,
2013-02-04 09:55:00,23.0,9.5,29.38,ENE,67,0.0,0.0,56,0.00,,,0.00,WUHU21623XXSP,2013-02-04 15:55:00,
2013-02-04 10:00:00,23.0,8.7,29.38,ENE,67,0.0,0.0,54,0.00,,,0.00,WUHU21623XXSP,2013-02-04 16:00:00,
2013-02-04 10:06:00,23.7,9.4,29.39,ENE,67,0.0,0.0,54,0.00,,,0.00,WUHU21623XXSP,2013-02-04 16:06:00,
2013-02-04 10:11:00,25.3,10.1,29.39,ENE,67,0.0,0.0,52,0.00,,,0.00,WUHU21623XXSP,2013-02-04 16:11:00,
2013-02-04 10:16:00,25.7,9.6,29.39,ENE,67,0.0,0.0,50,0.00,,,0.00,WUHU21623XXSP,2013-02-04 16:16:00,
2013-02-04 10:21:00,25.9,8.8,29.39,NE,45,0.0,0.0,48,0.00,,,0.00,WUHU21623XXSP,2013-02-04 16:21:00,
2013-02-04 10:26:00,26.2,8.3,29.39,ENE,67,0.0,0.0,48,0.00,,,0.00,WUHU21623XXSP,2013-02-04 16:26:00,
2013-02-04 10:31:00,27.1,8.8,29.39,ENE,67,0.0,0.0,48,0.00,,,0.00,WUHU21623XXSP,2013-02-04 16:31:00,
2013-02-04 10:36:00,28.6,10.3,29.40,ENE,67,0.0,0.0,46,0.00,,,0.00,WUHU21623XXSP,2013-02-04 16:36:00,
2013-02-04 10:41:00,28.9,10.2,29.40,ENE,67,0.0,0.0,45,0.00,,,0.00,WUHU21623XXSP,2013-02-04 16:41:00,
2013-02-04 10:46:00,30.0,11.0,29.40,ENE,67,0.0,0.0,44,0.00,,,0.00,WUHU21623XXSP,2013-02-04 16:46:00,
2013-02-04 10:51:00,30.6,10.6,29.41,ENE,67,0.0,0.0,43,0.00,,,0.00,WUHU21623XXSP,2013-02-04 16:51:00,
2013-02-04 10:56:00,31.1,10.6,29.40,ENE,67,0.0,0.0,42,0.00,,,0.00,WUHU21623XXSP,2013-02-04 16:56:00,
2013-02-04 11:01:00,31.6,10.6,29.41,ENE,67,0.0,0.0,43,0.00,,,0.00,WUHU21623XXSP,2013-02-04 17:01:00,
2013-02-04 11:06:00,32.7,11.6,29.40,ENE,67,0.0,0.0,41,0.00,,,0.00,WUHU21623XXSP,2013-02-04 17:06:00,
2013-02-04 11:11:00,34.0,12.7,29.40,ENE,67,0.0,0.0,41,0.00,,,0.00,WUHU21623XXSP,2013-02-04 17:11:00,
2013-02-04 11:16:00,34.0,12.7,29.40,ENE,67,0.0,0.0,40,0.00,,,0.00,WUHU21623XXSP,2013-02-04 17:16:00,
2013-02-04 11:21:00,32.7,11.0,29.39,ESE,112,0.0,0.0,40,0.00,,,0.00,WUHU21623XXSP,2013-02-04 17:21:00,
2013-02-04 11:26:00,30.9,8.2,29.39,SE,135,0.0,0.0,38,0.00,,,0.00,WUHU21623XXSP,2013-02-04 17:26:00,
2013-02-04 11:31:00,28.8,7.5,29.38,East,90,0.0,0.0,40,0.00,,,0.00,WUHU21623XXSP,2013-02-04 17:31:00,
2013-02-04 11:36:00,27.9,7.7,29.37,SE,135,0.0,0.0,42,0.00,,,0.00,WUHU21623XXSP,2013-02-04 17:36:00,
2013-02-04 11:41:00,27.1,7.0,29.37,ESE,112,0.0,0.0,42,0.00,,,0.00,WUHU21623XXSP,2013-02-04 17:41:00,
2013-02-04 11:46:00,27.0,7.8,29.37,SE,135,0.0,0.0,44,0.00,,,0.00,WUHU21623XXSP,2013-02-04 17:46:00,
2013-02-04 11:51:00,27.5,8.8,29.37,SE,135,0.0,0.0,45,0.00,,,0.00,WUHU21623XXSP,2013-02-04 17:51:00,
2013-02-04 11:56:00,28.2,9.5,29.37,SE,135,0.0,0.0,45,0.00,,,0.00,WUHU21623XXSP,2013-02-04 17:56:00,
2013-02-04 12:02:00,29.1,10.3,29.36,SE,135,0.0,0.0,45,0.00,,,0.00,WUHU21623XXSP,2013-02-04 18:02:00,
2013-02-04 12:07:00,29.1,9.8,29.36,SE,135,0.0,0.0,44,0.00,,,0.00,WUHU21623XXSP,2013-02-04 18:07:00,
2013-02-04 12:12:00,28.9,9.2,29.36,SE,135,0.0,0.0,43,0.00,,,0.00,WUHU21623XXSP,2013-02-04 18:12:00,
2013-02-04 12:17:00,29.5,10.1,29.35,SE,135,0.0,0.0,44,0.00,,,0.00,WUHU21623XXSP,2013-02-04 18:17:00,
2013-02-04 12:22:00,29.8,10.0,29.36,SE,135,0.0,0.0,43,0.00,,,0.00,WUHU21623XXSP,2013-02-04 18:22:00,
2013-02-04 12:27:00,29.7,9.8,29.36,SE,135,0.0,0.0,43,0.00,,,0.00,WUHU21623XXSP,2013-02-04 18:27:00,
2013-02-04 12:32:00,30.4,10.5,29.36,SE,135,0.0,0.0,43,0.00,,,0.00,WUHU21623XXSP,2013-02-04 18:32:00,
2013-02-04 12:37:00,30.7,10.8,29.36,SE,135,0.0,0.0,43,0.00,,,0.00,WUHU21623XXSP,2013-02-04 18:37:00,
2013-02-04 12:42:00,30.4,9.9,29.36,SE,135,0.0,0.0,42,0.00,,,0.00,WUHU21623XXSP,2013-02-04 18:42:00,
2013-02-04 12:47:00,30.7,10.3,29.36,WSW,247,0.9,0.9,42,0.00,,,0.00,WUHU21623XXSP,2013-02-04 18:47:00,
2013-02-04 12:52:00,30.7,10.3,29.36,SE,135,2.9,2.9,41,0.00,,,0.00,WUHU21623XXSP,2013-02-04 18:52:00,
2013-02-04 12:57:00,30.7,9.8,29.35,SE,135,0.0,2.9,41,0.00,,,0.00,WUHU21623XXSP,2013-02-04 18:57:00,
2013-02-04 13:02:00,30.6,9.1,29.35,SE,135,0.0,0.0,40,0.00,,,0.00,WUHU21623XXSP,2013-02-04 19:02:00,
2013-02-04 13:07:00,30.2,8.1,29.35,ESE,112,2.7,2.7,39,0.00,,,0.00,WUHU21623XXSP,2013-02-04 19:07:00,
2013-02-04 13:12:00,28.6,6.7,29.35,NE,45,0.0,2.7,39,0.00,,,0.00,WUHU21623XXSP,2013-02-04 19:12:00,
2013-02-04 13:17:00,28.0,6.2,29.35,NE,45,2.0,2.7,39,0.00,,,0.00,WUHU21623XXSP,2013-02-04 19:17:00,
2013-02-04 13:22:00,27.0,5.2,29.35,NE,45,2.5,2.5,39,0.00,,,0.00,WUHU21623XXSP,2013-02-04 19:22:00,
2013-02-04 13:27:00,25.0,4.1,29.35,NE,45,0.0,2.5,40,0.00,,,0.00,WUHU21623XXSP,2013-02-04 19:27:00,
2013-02-04 13:32:00,24.6,4.2,29.35,NE,45,0.0,0.0,41,0.00,,,0.00,WUHU21623XXSP,2013-02-04 19:32:00,
2013-02-04 13:37:00,25.0,5.1,29.35,NE,45,0.0,0.0,42,0.00,,,0.00,WUHU21623XXSP,2013-02-04 19:37:00,
2013-02-04 13:42:00,25.3,5.4,29.36,NE,45,0.0,0.0,42,0.00,,,0.00,WUHU21623XXSP,2013-02-04 19:42:00,
2013-02-04 13:47:00,25.9,5.9,29.36,East,90,0.0,0.0,42,0.00,,,0.00,WUHU21623XXSP,2013-02-04 19:47:00,
2013-02-04 13:52:00,25.9,6.3,29.35,WNW,292,0.0,1.3,43,0.00,,,0.00,WUHU21623XXSP,2013-02-04 19:52:00,
2013-02-04 13:57:00,25.9,6.3,29.35,WNW,292,0.0,1.3,43,0.00,,,0.00,WUHU21623XXSP,2013-02-04 19:57:00,
2013-02-04 14:02:00,25.9,6.3,29.35,WNW,292,4.3,4.3,43,0.00,,,0.00,WUHU21623XXSP,2013-02-04 20:02:00,
2013-02-04 14:08:00,25.5,6.0,29.35,WNW,292,0.9,4.3,43,0.00,,,0.00,WUHU21623XXSP,2013-02-04 20:08:00,
2013-02-04 14:13:00,26.2,7.2,29.34,West,270,0.0,0.9,44,0.00,,,0.00,WUHU21623XXSP,2013-02-04 20:13:00,
2013-02-04 14:18:00,27.0,7.3,29.35,West,270,3.1,3.1,43,0.00,,,0.00,WUHU21623XXSP,2013-02-04 20:18:00,
2013-02-04 14:23:00,26.4,6.8,29.34,West,270,3.1,3.1,43,0.00,,,0.00,WUHU21623XXSP,2013-02-04 20:23:00,
2013-02-04 14:28:00,25.9,6.3,29.34,WNW,292,0.0,3.1,43,0.00,,,0.00,WUHU21623XXSP,2013-02-04 20:28:00,
2013-02-04 14:33:00,25.3,5.4,29.34,WNW,292,0.7,0.7,42,0.00,,,0.00,WUHU21623XXSP,2013-02-04 20:33:00,
2013-02-04 14:38:00,24.6,5.7,29.33,WNW,292,0.0,1.8,44,0.00,,,0.00,WUHU21623XXSP,2013-02-04 20:38:00,
2013-02-04 14:43:00,24.6,5.7,29.33,West,270,5.4,5.4,44,0.00,,,0.00,WUHU21623XXSP,2013-02-04 20:43:00,
2013-02-04 14:48:00,23.9,5.1,29.33,West,270,0.0,5.4,44,0.00,,,0.00,WUHU21623XXSP,2013-02-04 20:48:00,
2013-02-04 14:53:00,23.5,4.7,29.33,WNW,292,3.1,3.6,44,0.00,,,0.00,WUHU21623XXSP,2013-02-04 20:53:00,
2013-02-04 14:58:00,22.8,4.6,29.33,West,270,4.5,4.5,45,0.00,,,0.00,WUHU21623XXSP,2013-02-04 20:58:00,
2013-02-04 15:03:00,22.6,4.9,29.32,West,270,0.0,4.5,46,0.00,,,0.00,WUHU21623XXSP,2013-02-04 21:03:00,
2013-02-04 15:08:00,22.1,4.4,29.32,West,270,0.0,2.5,46,0.00,,,0.00,WUHU21623XXSP,2013-02-04 21:08:00,
2013-02-04 15:13:00,22.1,4.8,29.32,West,270,2.7,2.7,47,0.00,,,0.00,WUHU21623XXSP,2013-02-04 21:13:00,
2013-02-04 15:18:00,21.9,4.6,29.32,WNW,292,5.1,5.1,47,0.00,,,0.00,WUHU21623XXSP,2013-02-04 21:18:00,
2013-02-04 15:23:00,21.0,3.3,29.31,WNW,292,0.0,5.1,46,0.00,,,0.00,WUHU21623XXSP,2013-02-04 21:23:00,
2013-02-04 15:28:00,20.8,3.6,29.31,West,270,0.0,3.8,47,0.00,,,0.00,WUHU21623XXSP,2013-02-04 21:28:00,
2013-02-04 15:33:00,20.8,3.6,29.30,West,270,0.0,0.0,48,0.00,,,0.00,WUHU21623XXSP,2013-02-04 21:33:00,
2013-02-04 15:38:00,20.5,3.8,29.30,West,270,0.0,0.0,48,0.00,,,0.00,WUHU21623XXSP,2013-02-04 21:38:00,
2013-02-04 15:44:00,20.3,3.6,29.30,West,270,0.0,3.1,48,0.00,,,0.00,WUHU21623XXSP,2013-02-04 21:44:00,
2013-02-04 15:49:00,20.5,4.2,29.30,West,270,0.0,3.1,49,0.00,,,0.00,WUHU21623XXSP,2013-02-04 21:49:00,
2013-02-04 15:54:00,20.5,4.2,29.30,West,270,0.0,0.0,49,0.00,,,0.00,WUHU21623XXSP,2013-02-04 21:54:00,
2013-02-04 15:59:00,20.5,4.2,29.30,West,270,0.0,0.0,49,0.00,,,0.00,WUHU21623XXSP,2013-02-04 21:59:00,
2013-02-04 16:04:00,20.1,3.9,29.30,West,270,0.0,0.0,49,0.00,,,0.00,WUHU21623XXSP,2013-02-04 22:04:00,
2013-02-04 16:09:00,19.9,3.8,29.30,West,270,0.0,0.0,49,0.00,,,0.00,WUHU21623XXSP,2013-02-04 22:09:00,
2013-02-04 16:14:00,19.8,3.6,29.29,West,270,0.0,0.0,49,0.00,,,0.00,WUHU21623XXSP,2013-02-04 22:14:00,
2013-02-04 16:19:00,19.6,3.4,29.29,West,270,0.0,0.0,49,0.00,,,0.00,WUHU21623XXSP,2013-02-04 22:19:00,
2013-02-04 16:24:00,19.4,3.7,29.30,West,270,0.0,0.0,50,0.00,,,0.00,WUHU21623XXSP,2013-02-04 22:24:00,
2013-02-04 16:29:00,19.0,3.6,29.30,West,270,0.0,0.0,50,0.00,,,0.00,WUHU21623XXSP,2013-02-04 22:29:00,
2013-02-04 16:34:00,18.3,2.8,29.30,West,270,0.0,0.0,50,0.00,,,0.00,WUHU21623XXSP,2013-02-04 22:34:00,
2013-02-04 16:39:00,17.8,2.3,29.30,West,270,2.7,2.7,50,0.00,,,0.00,WUHU21623XXSP,2013-02-04 22:39:00,
2013-02-04 16:44:00,17.2,2.6,29.30,West,270,0.0,2.7,52,0.00,,,0.00,WUHU21623XXSP,2013-02-04 22:44:00,
2013-02-04 16:49:00,16.9,2.6,29.30,West,270,0.0,0.0,52,0.00,,,0.00,WUHU21623XXSP,2013-02-04 22:49:00,
2013-02-04 16:54:00,16.9,2.6,29.30,West,270,0.0,0.0,53,0.00,,,0.00,WUHU21623XXSP,2013-02-04 22:54:00,
2013-02-04 16:59:00,16.7,2.5,29.30,West,270,0.0,0.0,53,0.00,,,0.00,WUHU21623XXSP,2013-02-04 22:59:00,
2013-02-04 17:04:00,15.8,1.6,29.30,West,270,0.0,0.0,53,0.00,,,0.00,WUHU21623XXSP,2013-02-04 23:04:00,
2013-02-04 17:09:00,15.4,1.3,29.30,West,270,2.7,2.7,53,0.00,,,0.00,WUHU21623XXSP,2013-02-04 23:09:00,
2013-02-04 17:14:00,14.7,1.0,29.30,West,270,1.6,2.7,54,0.00,,,0.00,WUHU21623XXSP,2013-02-04 23:14:00,
2013-02-04 17:19:00,14.4,0.6,29.29,West,270,0.0,1.6,54,0.00,,,0.00,WUHU21623XXSP,2013-02-04 23:19:00,
2013-02-04 17:24:00,13.8,0.1,29.30,West,270,0.0,0.0,54,0.00,,,0.00,WUHU21623XXSP,2013-02-04 23:24:00,
2013-02-04 17:29:00,13.1,-0.2,29.29,West,270,0.0,0.0,55,0.00,,,0.00,WUHU21623XXSP,2013-02-04 23:29:00,
2013-02-04 17:35:00,12.7,-0.3,29.30,West,270,0.0,0.0,55,0.00,,,0.00,WUHU21623XXSP,2013-02-04 23:35:00,
2013-02-04 17:39:00,12.2,-0.7,29.30,West,270,0.0,0.0,56,0.00,,,0.00,WUHU21623XXSP,2013-02-04 23:39:00,
2013-02-04 17:44:00,11.8,-0.6,29.30,West,270,0.0,0.0,57,0.00,,,0.00,WUHU21623XXSP,2013-02-04 23:44:00,
2013-02-04 17:50:00,11.3,-1.1,29.30,West,270,0.0,0.0,57,0.00,,,0.00,WUHU21623XXSP,2013-02-04 23:50:00,
2013-02-04 17:55:00,10.9,-1.4,29.30,West,270,0.0,0.0,57,0.00,,,0.00,WUHU21623XXSP,2013-02-04 23:55:00,
2013-02-04 18:00:00,10.2,-2.1,29.29,West,270,0.0,0.0,57,0.00,,,0.00,WUHU21623XXSP,2013-02-05 00:00:00,
2013-02-04 18:05:00,9.7,-2.2,29.29,West,270,0.0,0.0,58,0.00,,,0.00,WUHU21623XXSP,2013-02-05 00:05:00,
2013-02-04 18:10:00,8.6,-2.9,29.28,West,270,0.0,0.0,59,0.00,,,0.00,WUHU21623XXSP,2013-02-05 00:10:00,
2013-02-04 18:15:00,8.1,-3.0,29.28,West,270,0.0,0.0,60,0.00,,,0.00,WUHU21623XXSP,2013-02-05 00:15:00,
2013-02-04 18:20:00,7.5,-3.5,29.28,West,270,0.0,0.0,60,0.00,,,0.00,WUHU21623XXSP,2013-02-05 00:20:00,
2013-02-04 18:25:00,7.0,-4.0,29.28,West,270,0.0,0.0,60,0.00,,,0.00,WUHU21623XXSP,2013-02-05 00:25:00,
2013-02-04 18:30:00,7.0,-4.0,29.27,West,270,0.0,0.0,60,0.00,,,0.00,WUHU21623XXSP,2013-02-05 00:30:00,
2013-02-04 18:35:00,6.4,-4.2,29.27,West,270,0.0,0.0,61,0.00,,,0.00,WUHU21623XXSP,2013-02-05 00:35:00,
2013-02-04 18:40:00,6.1,-4.3,29.27,West,270,0.0,0.0,62,0.00,,,0.00,WUHU21623XXSP,2013-02-05 00:40:00,
2013-02-04 18:45:00,5.5,-4.6,29.26,West,270,0.0,0.0,63,0.00,,,0.00,WUHU21623XXSP,2013-02-05 00:45:00,
2013-02-04 18:50:00,5.5,-4.5,29.27,West,270,0.0,0.0,63,0.00,,,0.00,WUHU21623XXSP,2013-02-05 00:50:00,
2013-02-04 18:55:00,4.8,-4.8,29.26,West,270,0.0,0.0,64,0.00,,,0.00,WUHU21623XXSP,2013-02-05 00:55:00,
2013-02-04 19:00:00,5.0,-4.8,29.26,West,270,0.0,0.0,64,0.00,,,0.00,WUHU21623XXSP,2013-02-05 01:00:00,
2013-02-04 19:05:00,5.0,-4.4,29.26,West,270,0.0,0.0,65,0.00,,,0.00,WUHU21623XXSP,2013-02-05 01:05:00,
2013-02-04 19:10:00,4.8,-4.5,29.26,West,270,0.0,0.0,65,0.00,,,0.00,WUHU21623XXSP,2013-02-05 01:10:00,
2013-02-04 19:15:00,5.2,-4.4,29.25,West,270,0.0,0.0,65,0.00,,,0.00,WUHU21623XXSP,2013-02-05 01:15:00,
2013-02-04 19:20:00,5.4,-4.0,29.24,West,270,0.0,0.0,65,0.00,,,0.00,WUHU21623XXSP,2013-02-05 01:20:00,
2013-02-04 19:25:00,5.5,-3.8,29.25,WSW,247,0.0,0.0,66,0.00,,,0.00,WUHU21623XXSP,2013-02-05 01:25:00,
2013-02-04 19:30:00,5.7,-3.5,29.25,WSW,247,0.0,0.0,66,0.00,,,0.00,WUHU21623XXSP,2013-02-05 01:30:00,
2013-02-04 19:35:00,5.9,-2.8,29.25,WSW,247,0.0,0.0,67,0.00,,,0.00,WUHU21623XXSP,2013-02-05 01:35:00,
2013-02-04 19:40:00,5.9,-2.8,29.25,WSW,247,0.0,0.0,67,0.00,,,0.00,WUHU21623XXSP,2013-02-05 01:40:00,
2013-02-04 19:45:00,6.1,-2.6,29.25,WSW,247,0.0,0.0,67,0.00,,,0.00,WUHU21623XXSP,2013-02-05 01:45:00,
2013-02-04 19:50:00,6.6,-1.9,29.24,WSW,247,0.0,0.0,68,0.00,,,0.00,WUHU21623XXSP,2013-02-05 01:50:00,
2013-02-04 19:55:00,7.0,-1.8,29.25,WSW,247,0.0,0.0,68,0.00,,,0.00,WUHU21623XXSP,2013-02-05 01:55:00,
2013-02-04 20:00:00,7.3,-1.1,29.24,WSW,247,0.0,0.0,68,0.00,,,0.00,WUHU21623XXSP,2013-02-05 02:00:00,
2013-02-04 20:05:00,7.9,-0.5,29.24,WSW,247,0.0,0.0,68,0.00,,,0.00,WUHU21623XXSP,2013-02-05 02:05:00,
2013-02-04 20:11:00,8.2,0.2,29.24,WSW,247,0.0,0.0,69,0.00,,,0.00,WUHU21623XXSP,2013-02-05 02:11:00,
2013-02-04 20:16:00,8.4,0.3,29.23,WSW,247,0.0,0.0,69,0.00,,,0.00,WUHU21623XXSP,2013-02-05 02:16:00,
2013-02-04 20:21:00,8.4,0.3,29.24,WSW,247,0.0,0.0,69,0.00,,,0.00,WUHU21623XXSP,2013-02-05 02:21:00,
2013-02-04 20:26:00,8.4,0.3,29.23,WSW,247,0.0,0.0,69,0.00,,,0.00,WUHU21623XXSP,2013-02-05 02:26:00,
2013-02-04 20:31:00,8.4,0.3,29.23,WSW,247,0.0,0.0,69,0.00,,,0.00,WUHU21623XXSP,2013-02-05 02:31:00,
2013-02-04 20:36:00,8.4,0.3,29.23,WSW,247,0.0,0.0,69,0.00,,,0.00,WUHU21623XXSP,2013-02-05 02:36:00,